sensor_id;sensor_type;location;lat;lon;timestamp;pressure;altitude;pressure_sealevel;temperature;humidity
10946;BME280;5525;42.648;23.368;2024-03-17T00:01:08;94935.69;;;7.77;100.00
10946;BME280;5525;42.648;23.368;2024-03-17T00:03:35;94925.84;;;7.86;100.00
10946;BME280;5525;42.648;23.368;2024-03-17T00:06:02;94933.13;;;7.85;100.00
10946;BME280;5525;42.648;23.368;2024-03-17T00:08:29;94933.13;;;7.85;100.00
10946;BME280;5525;42.648;23.368;2024-03-17T00:10:55;94933.13;;;7.85;100.00
10946;BME280;5525;42.648;23.368;2024-03-17T00:13:23;94932.91;;;7.82;100.00
10946;BME280;5525;42.648;23.368;2024-03-17T00:15:49;94926.13;;;7.84;100.00
10946;BME280;5525;42.648;23.368;2024-03-17T00:18:16;94934.31;;;7.79;100.00
10946;BME280;5525;42.648;23.368;2024-03-17T00:20:42;94936.13;;;7.70;100.00
10946;BME280;5525;42.648;23.368;2024-03-17T00:23:10;94936.09;;;7.57;100.00
10946;BME280;5525;42.648;23.368;2024-03-17T00:25:37;94927.72;;;7.45;100.00
10946;BME280;5525;42.648;23.368;2024-03-17T00:28:05;94934.91;;;7.36;100.00
10946;BME280;5525;42.648;23.368;2024-03-17T00:30:31;94935.78;;;7.31;100.00
10946;BME280;5525;42.648;23.368;2024-03-17T00:32:58;94933.59;;;7.33;100.00
10946;BME280;5525;42.648;23.368;2024-03-17T00:35:24;94924.06;;;7.27;100.00
10946;BME280;5525;42.648;23.368;2024-03-17T00:37:51;94932.13;;;7.27;100.00
10946;BME280;5525;42.648;23.368;2024-03-17T00:40:20;94925.50;;;7.20;100.00
10946;BME280;5525;42.648;23.368;2024-03-17T00:42:47;94927.19;;;7.16;100.00
10946;BME280;5525;42.648;23.368;2024-03-17T00:45:15;94926.50;;;7.10;100.00
10946;BME280;5525;42.648;23.368;2024-03-17T00:47:42;94917.66;;;7.10;100.00
10946;BME280;5525;42.648;23.368;2024-03-17T00:50:09;94924.72;;;7.06;100.00
10946;BME280;5525;42.648;23.368;2024-03-17T00:52:36;94930.19;;;7.14;100.00
10946;BME280;5525;42.648;23.368;2024-03-17T00:55:03;94925.31;;;7.16;100.00
10946;BME280;5525;42.648;23.368;2024-03-17T00:57:31;94932.50;;;7.21;100.00
10946;BME280;5525;42.648;23.368;2024-03-17T00:59:57;94935.25;;;7.16;100.00
10946;BME280;5525;42.648;23.368;2024-03-17T01:02:23;94932.56;;;7.16;100.00
10946;BME280;5525;42.648;23.368;2024-03-17T01:04:49;94931.16;;;7.05;100.00
10946;BME280;5525;42.648;23.368;2024-03-17T01:07:16;94936.81;;;7.03;100.00
10946;BME280;5525;42.648;23.368;2024-03-17T01:09:42;94934.13;;;7.03;100.00
10946;BME280;5525;42.648;23.368;2024-03-17T01:12:09;94932.63;;;6.97;100.00
10946;BME280;5525;42.648;23.368;2024-03-17T01:14:36;94930.13;;;6.87;100.00
10946;BME280;5525;42.648;23.368;2024-03-17T01:17:03;94929.72;;;6.93;100.00
10946;BME280;5525;42.648;23.368;2024-03-17T01:19:30;94927.81;;;6.80;100.00
10946;BME280;5525;42.648;23.368;2024-03-17T01:22:01;94936.47;;;6.77;100.00
10946;BME280;5525;42.648;23.368;2024-03-17T01:24:27;94937.75;;;6.80;100.00
10946;BME280;5525;42.648;23.368;2024-03-17T01:26:57;94933.63;;;6.69;100.00
10946;BME280;5525;42.648;23.368;2024-03-17T01:29:22;94935.59;;;6.63;100.00
10946;BME280;5525;42.648;23.368;2024-03-17T01:31:51;94931.47;;;6.52;100.00
10946;BME280;5525;42.648;23.368;2024-03-17T01:34:17;94944.09;;;6.52;100.00
10946;BME280;5525;42.648;23.368;2024-03-17T01:36:44;94944.38;;;6.50;100.00
10946;BME280;5525;42.648;23.368;2024-03-17T01:39:11;94943.97;;;6.43;100.00
10946;BME280;5525;42.648;23.368;2024-03-17T01:41:38;94939.47;;;6.39;100.00
10946;BME280;5525;42.648;23.368;2024-03-17T01:44:04;94942.50;;;6.32;100.00
10946;BME280;5525;42.648;23.368;2024-03-17T01:46:32;94943.09;;;6.29;100.00
10946;BME280;5525;42.648;23.368;2024-03-17T01:49:00;94934.91;;;6.21;100.00
10946;BME280;5525;42.648;23.368;2024-03-17T01:51:27;94937.06;;;6.19;100.00
10946;BME280;5525;42.648;23.368;2024-03-17T01:53:53;94938.59;;;6.25;100.00
10946;BME280;5525;42.648;23.368;2024-03-17T01:56:21;94942.88;;;6.26;100.00
10946;BME280;5525;42.648;23.368;2024-03-17T01:58:48;94924.31;;;6.29;100.00
10946;BME280;5525;42.648;23.368;2024-03-17T02:01:14;94937.88;;;6.38;100.00
10946;BME280;5525;42.648;23.368;2024-03-17T02:03:41;94931.50;;;6.34;100.00
10946;BME280;5525;42.648;23.368;2024-03-17T02:06:09;94944.13;;;6.33;100.00
10946;BME280;5525;42.648;23.368;2024-03-17T02:08:50;94938.59;;;6.43;100.00
10946;BME280;5525;42.648;23.368;2024-03-17T02:11:27;94943.88;;;6.48;100.00
10946;BME280;5525;42.648;23.368;2024-03-17T02:13:53;94942.50;;;6.32;100.00
10946;BME280;5525;42.648;23.368;2024-03-17T02:16:20;94941.72;;;6.32;100.00
10946;BME280;5525;42.648;23.368;2024-03-17T02:18:46;94943.31;;;6.33;100.00
10946;BME280;5525;42.648;23.368;2024-03-17T02:21:15;94943.25;;;6.38;100.00
10946;BME280;5525;42.648;23.368;2024-03-17T02:23:43;94950.41;;;6.42;100.00
10946;BME280;5525;42.648;23.368;2024-03-17T02:26:10;94939.19;;;6.40;100.00
10946;BME280;5525;42.648;23.368;2024-03-17T02:28:39;94941.84;;;6.40;100.00
10946;BME280;5525;42.648;23.368;2024-03-17T02:31:08;94940.84;;;6.36;100.00
10946;BME280;5525;42.648;23.368;2024-03-17T02:33:34;94943.72;;;6.40;100.00
10946;BME280;5525;42.648;23.368;2024-03-17T02:36:01;94934.69;;;6.36;100.00
10946;BME280;5525;42.648;23.368;2024-03-17T02:38:27;94936.06;;;6.33;100.00
10946;BME280;5525;42.648;23.368;2024-03-17T02:41:12;94944.25;;;6.23;100.00
10946;BME280;5525;42.648;23.368;2024-03-17T02:43:39;94933.16;;;6.11;100.00
10946;BME280;5525;42.648;23.368;2024-03-17T02:46:06;94928.91;;;6.10;100.00
10946;BME280;5525;42.648;23.368;2024-03-17T02:48:34;94929.38;;;6.12;100.00
10946;BME280;5525;42.648;23.368;2024-03-17T02:51:02;94928.50;;;6.17;100.00
10946;BME280;5525;42.648;23.368;2024-03-17T02:53:29;94931.47;;;6.15;100.00
10946;BME280;5525;42.648;23.368;2024-03-17T02:55:56;94934.38;;;6.00;100.00
10946;BME280;5525;42.648;23.368;2024-03-17T02:58:24;94930.13;;;5.76;100.00
10946;BME280;5525;42.648;23.368;2024-03-17T03:00:51;94921.22;;;5.80;100.00
10946;BME280;5525;42.648;23.368;2024-03-17T03:03:18;94928.00;;;5.96;100.00
10946;BME280;5525;42.648;23.368;2024-03-17T03:05:45;94935.69;;;6.03;100.00
10946;BME280;5525;42.648;23.368;2024-03-17T03:08:14;94934.09;;;6.02;100.00
10946;BME280;5525;42.648;23.368;2024-03-17T03:10:43;94931.78;;;6.14;100.00
10946;BME280;5525;42.648;23.368;2024-03-17T03:13:10;94924.19;;;6.02;100.00
10946;BME280;5525;42.648;23.368;2024-03-17T03:15:39;94924.03;;;6.12;100.00
10946;BME280;5525;42.648;23.368;2024-03-17T03:18:06;94929.91;;;6.14;100.00
10946;BME280;5525;42.648;23.368;2024-03-17T03:20:32;94926.84;;;6.02;100.00
10946;BME280;5525;42.648;23.368;2024-03-17T03:22:59;94930.03;;;5.86;100.00
10946;BME280;5525;42.648;23.368;2024-03-17T03:25:26;94915.25;;;5.65;100.00
10946;BME280;5525;42.648;23.368;2024-03-17T03:27:53;94924.47;;;5.77;100.00
10946;BME280;5525;42.648;23.368;2024-03-17T03:30:23;94923.34;;;5.60;100.00
10946;BME280;5525;42.648;23.368;2024-03-17T03:32:51;94927.28;;;5.44;100.00
10946;BME280;5525;42.648;23.368;2024-03-17T03:35:18;94927.91;;;5.36;100.00
10946;BME280;5525;42.648;23.368;2024-03-17T03:37:45;94931.09;;;5.38;100.00
10946;BME280;5525;42.648;23.368;2024-03-17T03:40:12;94940.44;;;5.16;100.00
10946;BME280;5525;42.648;23.368;2024-03-17T03:42:42;94939.13;;;5.14;100.00
10946;BME280;5525;42.648;23.368;2024-03-17T03:45:09;94940.31;;;5.27;100.00
10946;BME280;5525;42.648;23.368;2024-03-17T03:47:38;94944.59;;;5.28;100.00
10946;BME280;5525;42.648;23.368;2024-03-17T03:50:08;94940.78;;;5.34;100.00
10946;BME280;5525;42.648;23.368;2024-03-17T03:52:35;94945.13;;;5.53;100.00
10946;BME280;5525;42.648;23.368;2024-03-17T03:55:02;94947.97;;;5.62;100.00
10946;BME280;5525;42.648;23.368;2024-03-17T03:57:32;94948.47;;;5.64;100.00
10946;BME280;5525;42.648;23.368;2024-03-17T03:59:59;94952.69;;;5.70;100.00
10946;BME280;5525;42.648;23.368;2024-03-17T04:02:31;94950.63;;;5.62;100.00
10946;BME280;5525;42.648;23.368;2024-03-17T04:04:59;94953.56;;;5.65;100.00
10946;BME280;5525;42.648;23.368;2024-03-17T04:07:28;94950.19;;;5.55;100.00
10946;BME280;5525;42.648;23.368;2024-03-17T04:09:54;94954.34;;;5.42;100.00
10946;BME280;5525;42.648;23.368;2024-03-17T04:12:24;94956.25;;;5.37;100.00
10946;BME280;5525;42.648;23.368;2024-03-17T04:14:51;94959.38;;;5.49;100.00
10946;BME280;5525;42.648;23.368;2024-03-17T04:17:19;94966.94;;;5.42;100.00
10946;BME280;5525;42.648;23.368;2024-03-17T04:19:47;94967.81;;;5.08;100.00
10946;BME280;5525;42.648;23.368;2024-03-17T04:22:14;94972.63;;;4.78;100.00
10946;BME280;5525;42.648;23.368;2024-03-17T04:24:43;94976.81;;;4.55;100.00
10946;BME280;5525;42.648;23.368;2024-03-17T04:27:10;94968.28;;;4.53;100.00
10946;BME280;5525;42.648;23.368;2024-03-17T04:29:37;94978.44;;;4.85;100.00
10946;BME280;5525;42.648;23.368;2024-03-17T04:32:05;94981.56;;;4.97;100.00
10946;BME280;5525;42.648;23.368;2024-03-17T04:34:32;94982.63;;;4.96;100.00
10946;BME280;5525;42.648;23.368;2024-03-17T04:36:59;94988.81;;;4.96;100.00
10946;BME280;5525;42.648;23.368;2024-03-17T04:39:26;94985.34;;;4.91;100.00
10946;BME280;5525;42.648;23.368;2024-03-17T04:41:54;94994.94;;;4.97;100.00
10946;BME280;5525;42.648;23.368;2024-03-17T04:44:21;94991.69;;;5.00;100.00
10946;BME280;5525;42.648;23.368;2024-03-17T04:46:48;94998.84;;;5.09;100.00
10946;BME280;5525;42.648;23.368;2024-03-17T04:49:15;95004.91;;;4.86;100.00
10946;BME280;5525;42.648;23.368;2024-03-17T04:51:42;94991.22;;;5.21;100.00
10946;BME280;5525;42.648;23.368;2024-03-17T04:54:09;95006.59;;;5.40;100.00
10946;BME280;5525;42.648;23.368;2024-03-17T04:56:36;95005.63;;;5.54;100.00
10946;BME280;5525;42.648;23.368;2024-03-17T04:59:04;95017.00;;;5.70;100.00
10946;BME280;5525;42.648;23.368;2024-03-17T05:01:31;95012.47;;;5.65;100.00
10946;BME280;5525;42.648;23.368;2024-03-17T05:04:01;95013.09;;;5.57;100.00
10946;BME280;5525;42.648;23.368;2024-03-17T05:06:29;95012.44;;;5.42;100.00
10946;BME280;5525;42.648;23.368;2024-03-17T05:08:55;95013.94;;;5.53;100.00
10946;BME280;5525;42.648;23.368;2024-03-17T05:11:22;95017.22;;;5.97;100.00
10946;BME280;5525;42.648;23.368;2024-03-17T05:13:49;95020.47;;;6.17;100.00
10946;BME280;5525;42.648;23.368;2024-03-17T05:16:18;95015.59;;;6.01;100.00
10946;BME280;5525;42.648;23.368;2024-03-17T05:18:48;95027.09;;;5.78;100.00
10946;BME280;5525;42.648;23.368;2024-03-17T05:21:15;95024.69;;;5.76;100.00
10946;BME280;5525;42.648;23.368;2024-03-17T05:23:42;95032.78;;;5.71;100.00
10946;BME280;5525;42.648;23.368;2024-03-17T05:26:09;95028.16;;;5.77;100.00
10946;BME280;5525;42.648;23.368;2024-03-17T05:28:36;95035.09;;;6.06;100.00
10946;BME280;5525;42.648;23.368;2024-03-17T05:31:03;95036.25;;;6.42;100.00
10946;BME280;5525;42.648;23.368;2024-03-17T05:33:31;95029.00;;;6.61;100.00
10946;BME280;5525;42.648;23.368;2024-03-17T05:35:59;95023.97;;;6.73;100.00
10946;BME280;5525;42.648;23.368;2024-03-17T05:38:28;95032.13;;;6.87;100.00
10946;BME280;5525;42.648;23.368;2024-03-17T05:40:56;95040.53;;;6.99;100.00
10946;BME280;5525;42.648;23.368;2024-03-17T05:43:23;95025.56;;;7.12;100.00
10946;BME280;5525;42.648;23.368;2024-03-17T05:45:51;95024.63;;;7.35;100.00
10946;BME280;5525;42.648;23.368;2024-03-17T05:48:18;95026.97;;;7.55;100.00
10946;BME280;5525;42.648;23.368;2024-03-17T05:50:46;95021.41;;;7.65;100.00
10946;BME280;5525;42.648;23.368;2024-03-17T05:53:13;95021.31;;;7.70;100.00
10946;BME280;5525;42.648;23.368;2024-03-17T05:55:40;95021.31;;;7.70;100.00
10946;BME280;5525;42.648;23.368;2024-03-17T05:58:08;95017.81;;;7.69;100.00
10946;BME280;5525;42.648;23.368;2024-03-17T06:00:35;95017.91;;;7.64;100.00
10946;BME280;5525;42.648;23.368;2024-03-17T06:03:03;95026.09;;;7.86;100.00
10946;BME280;5525;42.648;23.368;2024-03-17T06:05:31;95022.13;;;7.97;100.00
10946;BME280;5525;42.648;23.368;2024-03-17T06:08:00;95020.16;;;8.30;100.00
10946;BME280;5525;42.648;23.368;2024-03-17T06:10:27;95030.75;;;7.67;100.00
10946;BME280;5525;42.648;23.368;2024-03-17T06:12:54;95042.22;;;7.59;100.00
10946;BME280;5525;42.648;23.368;2024-03-17T06:15:21;95041.69;;;7.57;100.00
10946;BME280;5525;42.648;23.368;2024-03-17T06:17:49;95040.88;;;7.57;100.00
10946;BME280;5525;42.648;23.368;2024-03-17T06:20:17;95035.94;;;7.50;100.00
10946;BME280;5525;42.648;23.368;2024-03-17T06:22:44;95047.75;;;7.49;100.00
10946;BME280;5525;42.648;23.368;2024-03-17T06:25:12;95034.69;;;7.88;100.00
10946;BME280;5525;42.648;23.368;2024-03-17T06:27:39;95040.97;;;7.97;100.00
10946;BME280;5525;42.648;23.368;2024-03-17T06:30:07;95037.53;;;8.59;100.00
10946;BME280;5525;42.648;23.368;2024-03-17T06:32:39;95035.59;;;8.24;100.00
10946;BME280;5525;42.648;23.368;2024-03-17T06:35:06;95040.50;;;8.85;100.00
10946;BME280;5525;42.648;23.368;2024-03-17T06:37:33;95045.03;;;8.49;100.00
10946;BME280;5525;42.648;23.368;2024-03-17T06:40:00;95042.50;;;8.80;100.00
10946;BME280;5525;42.648;23.368;2024-03-17T06:42:29;95055.91;;;9.29;100.00
10946;BME280;5525;42.648;23.368;2024-03-17T06:44:56;95053.44;;;9.63;100.00
10946;BME280;5525;42.648;23.368;2024-03-17T06:47:23;95054.75;;;9.65;100.00
10946;BME280;5525;42.648;23.368;2024-03-17T06:49:50;95049.66;;;9.64;100.00
10946;BME280;5525;42.648;23.368;2024-03-17T06:52:17;95048.09;;;10.02;100.00
10946;BME280;5525;42.648;23.368;2024-03-17T06:54:46;95042.56;;;10.38;100.00
10946;BME280;5525;42.648;23.368;2024-03-17T06:57:15;95052.84;;;10.92;100.00
10946;BME280;5525;42.648;23.368;2024-03-17T06:59:43;95043.31;;;11.03;100.00
10946;BME280;5525;42.648;23.368;2024-03-17T07:02:11;95049.53;;;11.20;100.00
10946;BME280;5525;42.648;23.368;2024-03-17T07:04:41;95048.41;;;11.55;100.00
10946;BME280;5525;42.648;23.368;2024-03-17T07:07:08;95042.16;;;11.89;100.00
10946;BME280;5525;42.648;23.368;2024-03-17T07:09:35;95046.78;;;11.80;100.00
10946;BME280;5525;42.648;23.368;2024-03-17T07:12:02;95041.28;;;12.14;100.00
10946;BME280;5525;42.648;23.368;2024-03-17T07:14:28;95042.94;;;12.36;100.00
10946;BME280;5525;42.648;23.368;2024-03-17T07:16:58;95039.69;;;12.51;100.00
10946;BME280;5525;42.648;23.368;2024-03-17T07:19:25;95031.84;;;13.48;100.00
10946;BME280;5525;42.648;23.368;2024-03-17T07:21:52;95032.41;;;16.53;100.00
10946;BME280;5525;42.648;23.368;2024-03-17T07:24:20;95037.97;;;19.31;87.30
10946;BME280;5525;42.648;23.368;2024-03-17T07:26:47;95036.97;;;21.94;69.94
10946;BME280;5525;42.648;23.368;2024-03-17T07:29:14;95040.66;;;23.91;55.97
10946;BME280;5525;42.648;23.368;2024-03-17T07:31:41;95044.22;;;22.47;54.21
10946;BME280;5525;42.648;23.368;2024-03-17T07:34:09;95045.97;;;21.87;56.35
10946;BME280;5525;42.648;23.368;2024-03-17T07:36:36;95047.84;;;20.68;59.69
10946;BME280;5525;42.648;23.368;2024-03-17T07:39:03;95046.44;;;19.26;65.35
10946;BME280;5525;42.648;23.368;2024-03-17T07:41:30;95042.50;;;18.10;73.90
10946;BME280;5525;42.648;23.368;2024-03-17T07:43:56;95047.63;;;18.12;74.32
10946;BME280;5525;42.648;23.368;2024-03-17T07:46:23;95039.66;;;18.03;75.47
10946;BME280;5525;42.648;23.368;2024-03-17T07:48:50;95046.75;;;17.16;81.82
10946;BME280;5525;42.648;23.368;2024-03-17T07:51:19;95050.66;;;16.37;86.72
10946;BME280;5525;42.648;23.368;2024-03-17T07:53:46;95049.13;;;17.02;86.47
10946;BME280;5525;42.648;23.368;2024-03-17T07:56:15;95052.34;;;16.42;89.22
10946;BME280;5525;42.648;23.368;2024-03-17T07:58:43;95053.47;;;15.70;96.86
10946;BME280;5525;42.648;23.368;2024-03-17T08:01:11;95047.63;;;15.84;98.01
10946;BME280;5525;42.648;23.368;2024-03-17T08:03:39;95050.28;;;15.53;97.86
10946;BME280;5525;42.648;23.368;2024-03-17T08:06:07;95045.25;;;15.55;99.35
10946;BME280;5525;42.648;23.368;2024-03-17T08:08:37;95048.69;;;15.79;98.78
10946;BME280;5525;42.648;23.368;2024-03-17T08:11:04;95047.06;;;15.63;97.12
10946;BME280;5525;42.648;23.368;2024-03-17T08:13:31;95040.28;;;15.84;96.98
10946;BME280;5525;42.648;23.368;2024-03-17T08:16:01;95040.50;;;16.07;95.46
10946;BME280;5525;42.648;23.368;2024-03-17T08:18:29;95042.28;;;15.87;95.92
10946;BME280;5525;42.648;23.368;2024-03-17T08:20:55;95048.94;;;16.02;94.70
10946;BME280;5525;42.648;23.368;2024-03-17T08:23:23;95038.34;;;15.57;99.18
10946;BME280;5525;42.648;23.368;2024-03-17T08:25:54;95041.75;;;13.98;100.00
10946;BME280;5525;42.648;23.368;2024-03-17T08:28:22;95042.50;;;15.94;96.10
10946;BME280;5525;42.648;23.368;2024-03-17T08:30:52;95040.03;;;15.89;95.80
10946;BME280;5525;42.648;23.368;2024-03-17T08:33:20;95038.91;;;16.06;93.58
10946;BME280;5525;42.648;23.368;2024-03-17T08:35:54;95036.63;;;16.82;87.65
10946;BME280;5525;42.648;23.368;2024-03-17T08:38:22;95027.09;;;17.26;84.04
10946;BME280;5525;42.648;23.368;2024-03-17T08:40:49;95028.75;;;16.96;82.69
10946;BME280;5525;42.648;23.368;2024-03-17T08:43:18;95013.44;;;17.61;83.42
10946;BME280;5525;42.648;23.368;2024-03-17T08:45:45;95027.56;;;19.17;72.32
10946;BME280;5525;42.648;23.368;2024-03-17T08:48:12;95027.78;;;19.90;66.77
10946;BME280;5525;42.648;23.368;2024-03-17T08:50:39;95024.38;;;21.93;60.60
10946;BME280;5525;42.648;23.368;2024-03-17T08:53:05;95018.84;;;21.14;56.37
10946;BME280;5525;42.648;23.368;2024-03-17T08:55:33;95023.38;;;19.82;62.56
10946;BME280;5525;42.648;23.368;2024-03-17T08:58:00;95013.94;;;22.47;54.05
10946;BME280;5525;42.648;23.368;2024-03-17T09:00:28;95019.41;;;21.44;56.02
10946;BME280;5525;42.648;23.368;2024-03-17T09:02:59;95011.44;;;21.97;54.27
10946;BME280;5525;42.648;23.368;2024-03-17T09:05:29;95011.53;;;22.25;54.62
10946;BME280;5525;42.648;23.368;2024-03-17T09:07:58;95002.13;;;22.29;53.08
10946;BME280;5525;42.648;23.368;2024-03-17T09:10:26;95013.09;;;23.84;49.52
10946;BME280;5525;42.648;23.368;2024-03-17T09:12:53;95010.44;;;24.49;46.45
10946;BME280;5525;42.648;23.368;2024-03-17T09:15:20;95009.25;;;25.89;43.18
10946;BME280;5525;42.648;23.368;2024-03-17T09:17:48;95005.09;;;28.07;38.23
10946;BME280;5525;42.648;23.368;2024-03-17T09:20:15;95006.66;;;31.02;32.71
10946;BME280;5525;42.648;23.368;2024-03-17T09:22:42;95016.16;;;29.81;31.40
10946;BME280;5525;42.648;23.368;2024-03-17T09:25:09;94997.28;;;27.36;35.67
10946;BME280;5525;42.648;23.368;2024-03-17T09:27:36;94994.88;;;25.24;37.65
10946;BME280;5525;42.648;23.368;2024-03-17T09:30:03;94999.81;;;28.32;33.41
10946;BME280;5525;42.648;23.368;2024-03-17T09:32:34;94996.16;;;27.76;34.49
10946;BME280;5525;42.648;23.368;2024-03-17T09:35:03;94989.16;;;27.68;33.85
10946;BME280;5525;42.648;23.368;2024-03-17T09:37:30;94977.09;;;26.32;35.06
10946;BME280;5525;42.648;23.368;2024-03-17T09:39:57;94982.50;;;25.79;36.31
10946;BME280;5525;42.648;23.368;2024-03-17T09:42:25;94980.91;;;26.15;35.48
10946;BME280;5525;42.648;23.368;2024-03-17T09:44:53;94982.44;;;27.00;33.30
10946;BME280;5525;42.648;23.368;2024-03-17T09:47:21;94975.91;;;29.98;29.69
10946;BME280;5525;42.648;23.368;2024-03-17T09:49:50;94990.72;;;33.04;26.78
10946;BME280;5525;42.648;23.368;2024-03-17T09:52:20;94976.66;;;31.06;26.46
10946;BME280;5525;42.648;23.368;2024-03-17T09:54:54;94978.34;;;27.54;29.73
10946;BME280;5525;42.648;23.368;2024-03-17T09:57:24;94979.97;;;24.66;32.96
10946;BME280;5525;42.648;23.368;2024-03-17T09:59:52;94985.34;;;24.29;32.90
10946;BME280;5525;42.648;23.368;2024-03-17T10:02:21;94970.66;;;23.57;33.02
10946;BME280;5525;42.648;23.368;2024-03-17T10:04:48;94971.81;;;21.26;34.94
10946;BME280;5525;42.648;23.368;2024-03-17T10:07:15;94973.13;;;21.49;33.69
10946;BME280;5525;42.648;23.368;2024-03-17T10:09:44;94986.06;;;22.94;33.71
10946;BME280;5525;42.648;23.368;2024-03-17T10:12:27;94974.72;;;26.31;29.93
10946;BME280;5525;42.648;23.368;2024-03-17T10:14:59;94980.47;;;25.02;29.08
10946;BME280;5525;42.648;23.368;2024-03-17T10:17:30;94973.56;;;24.80;29.13
10946;BME280;5525;42.648;23.368;2024-03-17T10:20:14;94969.06;;;23.56;31.11
10946;BME280;5525;42.648;23.368;2024-03-17T10:23:00;94977.56;;;25.20;29.74
10946;BME280;5525;42.648;23.368;2024-03-17T10:25:30;94980.69;;;24.74;30.63
10946;BME280;5525;42.648;23.368;2024-03-17T10:27:57;94969.53;;;23.12;33.46
10946;BME280;5525;42.648;23.368;2024-03-17T10:30:24;94966.28;;;23.63;33.96
10946;BME280;5525;42.648;23.368;2024-03-17T10:32:55;94970.38;;;20.92;36.02
10946;BME280;5525;42.648;23.368;2024-03-17T10:35:30;94970.78;;;21.51;36.87
10946;BME280;5525;42.648;23.368;2024-03-17T10:37:58;94967.19;;;19.66;39.61
10946;BME280;5525;42.648;23.368;2024-03-17T10:40:26;94966.75;;;19.31;41.43
10946;BME280;5525;42.648;23.368;2024-03-17T10:42:54;94973.09;;;19.68;41.59
10946;BME280;5525;42.648;23.368;2024-03-17T10:45:21;94968.72;;;19.96;40.72
10946;BME280;5525;42.648;23.368;2024-03-17T10:47:49;94961.91;;;18.95;42.95
10946;BME280;5525;42.648;23.368;2024-03-17T10:50:18;94965.34;;;17.75;46.01
10946;BME280;5525;42.648;23.368;2024-03-17T10:52:46;94959.97;;;18.01;45.26
10946;BME280;5525;42.648;23.368;2024-03-17T10:55:23;94957.19;;;18.20;45.16
10946;BME280;5525;42.648;23.368;2024-03-17T10:57:51;94956.75;;;18.64;40.93
10946;BME280;5525;42.648;23.368;2024-03-17T11:00:21;94955.16;;;17.72;41.60
10946;BME280;5525;42.648;23.368;2024-03-17T11:02:49;94950.38;;;18.56;42.03
10946;BME280;5525;42.648;23.368;2024-03-17T11:05:19;94946.47;;;17.48;43.26
10946;BME280;5525;42.648;23.368;2024-03-17T11:07:48;94946.81;;;17.65;41.76
10946;BME280;5525;42.648;23.368;2024-03-17T11:10:18;94945.50;;;17.78;41.51
10946;BME280;5525;42.648;23.368;2024-03-17T11:12:46;94941.25;;;17.05;41.38
10946;BME280;5525;42.648;23.368;2024-03-17T11:15:38;94946.44;;;17.29;40.25
10946;BME280;5525;42.648;23.368;2024-03-17T11:18:32;94938.41;;;17.74;40.34
10946;BME280;5525;42.648;23.368;2024-03-17T11:21:01;94937.97;;;17.94;42.11
10946;BME280;5525;42.648;23.368;2024-03-17T11:23:33;94942.06;;;18.26;43.46
10946;BME280;5525;42.648;23.368;2024-03-17T11:26:02;94938.91;;;18.99;41.93
10946;BME280;5525;42.648;23.368;2024-03-17T11:28:46;94934.25;;;19.00;42.30
10946;BME280;5525;42.648;23.368;2024-03-17T11:31:38;94943.78;;;20.49;38.92
10946;BME280;5525;42.648;23.368;2024-03-17T11:37:05;94918.78;;;20.57;42.91
10946;BME280;5525;42.648;23.368;2024-03-17T11:39:47;94921.09;;;21.06;43.01
10946;BME280;5525;42.648;23.368;2024-03-17T11:42:17;94915.56;;;20.48;43.49
10946;BME280;5525;42.648;23.368;2024-03-17T11:44:44;94910.09;;;19.35;47.13
10946;BME280;5525;42.648;23.368;2024-03-17T11:47:21;94917.56;;;19.74;45.05
10946;BME280;5525;42.648;23.368;2024-03-17T11:49:47;94914.94;;;18.89;46.18
10946;BME280;5525;42.648;23.368;2024-03-17T11:52:15;94912.34;;;19.95;44.72
10946;BME280;5525;42.648;23.368;2024-03-17T11:54:43;94886.16;;;22.48;39.92
10946;BME280;5525;42.648;23.368;2024-03-17T11:57:11;94902.34;;;21.22;40.00
10946;BME280;5525;42.648;23.368;2024-03-17T11:59:38;94908.03;;;19.98;42.10
10946;BME280;5525;42.648;23.368;2024-03-17T12:02:10;94906.63;;;18.82;43.39
10946;BME280;5525;42.648;23.368;2024-03-17T12:04:44;94898.97;;;18.95;43.91
10946;BME280;5525;42.648;23.368;2024-03-17T12:07:12;94897.34;;;19.49;43.83
10946;BME280;5525;42.648;23.368;2024-03-17T12:09:41;94899.41;;;19.59;43.34
10946;BME280;5525;42.648;23.368;2024-03-17T12:12:09;94898.31;;;18.75;43.17
10946;BME280;5525;42.648;23.368;2024-03-17T12:14:37;94892.59;;;21.42;40.19
10946;BME280;5525;42.648;23.368;2024-03-17T12:17:04;94894.38;;;23.11;36.25
10946;BME280;5525;42.648;23.368;2024-03-17T12:19:33;94887.50;;;21.37;38.08
10946;BME280;5525;42.648;23.368;2024-03-17T12:22:01;94885.78;;;22.32;37.40
10946;BME280;5525;42.648;23.368;2024-03-17T12:24:29;94883.03;;;22.32;36.99
10946;BME280;5525;42.648;23.368;2024-03-17T12:26:56;94894.06;;;22.57;36.08
10946;BME280;5525;42.648;23.368;2024-03-17T12:29:29;94885.09;;;20.64;38.14
10946;BME280;5525;42.648;23.368;2024-03-17T12:31:57;94891.63;;;20.42;40.19
10946;BME280;5525;42.648;23.368;2024-03-17T12:34:26;94885.69;;;19.92;41.86
10946;BME280;5525;42.648;23.368;2024-03-17T12:36:52;94894.44;;;20.52;41.20
10946;BME280;5525;42.648;23.368;2024-03-17T12:39:22;94888.59;;;20.61;41.51
10946;BME280;5525;42.648;23.368;2024-03-17T12:42:08;94888.56;;;20.54;41.92
10946;BME280;5525;42.648;23.368;2024-03-17T12:44:36;94892.00;;;18.97;45.62
10946;BME280;5525;42.648;23.368;2024-03-17T12:47:03;94878.50;;;18.33;49.86
10946;BME280;5525;42.648;23.368;2024-03-17T12:49:32;94882.72;;;17.40;52.89
10946;BME280;5525;42.648;23.368;2024-03-17T12:51:58;94889.75;;;16.65;57.96
10946;BME280;5525;42.648;23.368;2024-03-17T12:54:28;94884.69;;;16.17;63.76
10946;BME280;5525;42.648;23.368;2024-03-17T12:57:05;94886.63;;;16.82;63.79
10946;BME280;5525;42.648;23.368;2024-03-17T12:59:49;94879.88;;;16.10;66.69
10946;BME280;5525;42.648;23.368;2024-03-17T13:02:41;94867.56;;;16.16;69.09
10946;BME280;5525;42.648;23.368;2024-03-17T13:05:15;94871.56;;;16.53;69.23
10946;BME280;5525;42.648;23.368;2024-03-17T13:07:42;94877.94;;;16.11;73.67
10946;BME280;5525;42.648;23.368;2024-03-17T13:10:13;94857.72;;;15.96;75.23